sensor_id;sensor_type;location;lat;lon;timestamp;temperature;humidity
8715;DHT22;4394;51.208;8.904;2022-12-10T00:01:03;-0.20;99.90
8715;DHT22;4394;51.208;8.904;2022-12-10T00:03:51;-0.20;99.90
8715;DHT22;4394;51.208;8.904;2022-12-10T00:06:41;-0.30;99.90
8715;DHT22;4394;51.208;8.904;2022-12-10T00:09:29;-0.40;99.90
8715;DHT22;4394;51.208;8.904;2022-12-10T00:12:18;-0.40;99.90
8715;DHT22;4394;51.208;8.904;2022-12-10T00:15:06;-0.40;99.90
8715;DHT22;4394;51.208;8.904;2022-12-10T00:17:54;-0.40;99.90
8715;DHT22;4394;51.208;8.904;2022-12-10T00:20:42;-0.40;99.90
8715;DHT22;4394;51.208;8.904;2022-12-10T00:23:32;-0.40;99.90
8715;DHT22;4394;51.208;8.904;2022-12-10T00:26:20;-0.50;99.90
8715;DHT22;4394;51.208;8.904;2022-12-10T00:29:09;-0.50;99.90
8715;DHT22;4394;51.208;8.904;2022-12-10T00:31:58;-0.40;99.90
8715;DHT22;4394;51.208;8.904;2022-12-10T00:34:46;-0.50;99.90
8715;DHT22;4394;51.208;8.904;2022-12-10T00:37:34;-0.50;99.90
8715;DHT22;4394;51.208;8.904;2022-12-10T00:40:23;-0.60;99.90
8715;DHT22;4394;51.208;8.904;2022-12-10T00:43:11;-0.60;99.90
8715;DHT22;4394;51.208;8.904;2022-12-10T00:45:59;-0.70;99.90
8715;DHT22;4394;51.208;8.904;2022-12-10T00:48:47;-0.70;99.90
8715;DHT22;4394;51.208;8.904;2022-12-10T00:51:36;-0.70;99.90
8715;DHT22;4394;51.208;8.904;2022-12-10T00:54:24;-0.70;99.90
8715;DHT22;4394;51.208;8.904;2022-12-10T00:57:13;-0.80;99.90
8715;DHT22;4394;51.208;8.904;2022-12-10T01:00:02;-0.80;99.90
8715;DHT22;4394;51.208;8.904;2022-12-10T01:02:51;-0.80;99.90
8715;DHT22;4394;51.208;8.904;2022-12-10T01:05:39;-0.90;99.90
8715;DHT22;4394;51.208;8.904;2022-12-10T01:08:27;-0.90;99.90
8715;DHT22;4394;51.208;8.904;2022-12-10T01:11:16;-0.90;99.90
8715;DHT22;4394;51.208;8.904;2022-12-10T01:14:06;-1.00;99.90
8715;DHT22;4394;51.208;8.904;2022-12-10T01:16:55;-0.90;99.90
8715;DHT22;4394;51.208;8.904;2022-12-10T01:19:43;-0.90;99.90
8715;DHT22;4394;51.208;8.904;2022-12-10T01:22:31;-0.90;99.90
8715;DHT22;4394;51.208;8.904;2022-12-10T01:25:19;-1.00;99.90
8715;DHT22;4394;51.208;8.904;2022-12-10T01:28:08;-1.00;99.90
8715;DHT22;4394;51.208;8.904;2022-12-10T01:31:01;-1.00;99.90
8715;DHT22;4394;51.208;8.904;2022-12-10T01:33:50;-0.90;99.90
8715;DHT22;4394;51.208;8.904;2022-12-10T01:36:39;-1.00;99.90
8715;DHT22;4394;51.208;8.904;2022-12-10T01:39:27;-1.00;99.90
8715;DHT22;4394;51.208;8.904;2022-12-10T01:42:15;-1.10;99.90
8715;DHT22;4394;51.208;8.904;2022-12-10T01:45:06;-1.10;99.90
8715;DHT22;4394;51.208;8.904;2022-12-10T01:47:56;-1.10;99.90
8715;DHT22;4394;51.208;8.904;2022-12-10T01:50:50;-1.10;99.90
8715;DHT22;4394;51.208;8.904;2022-12-10T01:53:38;-1.10;99.90
8715;DHT22;4394;51.208;8.904;2022-12-10T01:56:26;-1.10;99.90
8715;DHT22;4394;51.208;8.904;2022-12-10T01:59:15;-1.00;99.90
8715;DHT22;4394;51.208;8.904;2022-12-10T02:02:04;-1.00;99.90
8715;DHT22;4394;51.208;8.904;2022-12-10T02:05:00;-1.00;99.90
8715;DHT22;4394;51.208;8.904;2022-12-10T02:07:52;-1.00;99.90
8715;DHT22;4394;51.208;8.904;2022-12-10T02:10:44;-1.00;99.90
8715;DHT22;4394;51.208;8.904;2022-12-10T02:13:35;-1.00;99.90
8715;DHT22;4394;51.208;8.904;2022-12-10T02:16:27;-1.00;99.90
8715;DHT22;4394;51.208;8.904;2022-12-10T02:19:18;-1.10;99.90
8715;DHT22;4394;51.208;8.904;2022-12-10T02:22:10;-1.10;99.90
8715;DHT22;4394;51.208;8.904;2022-12-10T02:24:59;-1.10;99.90
8715;DHT22;4394;51.208;8.904;2022-12-10T02:27:51;-1.10;99.90
8715;DHT22;4394;51.208;8.904;2022-12-10T02:30:42;-1.10;99.90
8715;DHT22;4394;51.208;8.904;2022-12-10T02:33:30;-1.10;99.90
8715;DHT22;4394;51.208;8.904;2022-12-10T02:36:19;-1.10;99.90
8715;DHT22;4394;51.208;8.904;2022-12-10T02:39:09;-1.10;99.90
8715;DHT22;4394;51.208;8.904;2022-12-10T02:41:58;-1.10;99.90
8715;DHT22;4394;51.208;8.904;2022-12-10T02:44:46;-1.10;99.90
8715;DHT22;4394;51.208;8.904;2022-12-10T02:47:37;-1.10;99.90
8715;DHT22;4394;51.208;8.904;2022-12-10T02:50:26;-1.10;99.90
8715;DHT22;4394;51.208;8.904;2022-12-10T02:53:14;-1.20;99.90
8715;DHT22;4394;51.208;8.904;2022-12-10T02:56:08;-1.20;99.90
8715;DHT22;4394;51.208;8.904;2022-12-10T02:59:02;-1.20;99.90
8715;DHT22;4394;51.208;8.904;2022-12-10T03:01:54;-1.30;99.90
8715;DHT22;4394;51.208;8.904;2022-12-10T03:04:46;-1.40;99.90
8715;DHT22;4394;51.208;8.904;2022-12-10T03:07:39;-1.30;99.90
8715;DHT22;4394;51.208;8.904;2022-12-10T03:10:29;-1.30;99.90
8715;DHT22;4394;51.208;8.904;2022-12-10T03:13:20;-1.30;99.90
8715;DHT22;4394;51.208;8.904;2022-12-10T03:16:10;-1.30;99.90
8715;DHT22;4394;51.208;8.904;2022-12-10T03:19:00;-1.30;99.90
8715;DHT22;4394;51.208;8.904;2022-12-10T03:21:50;-1.20;99.90
8715;DHT22;4394;51.208;8.904;2022-12-10T03:24:39;-1.20;99.90
8715;DHT22;4394;51.208;8.904;2022-12-10T03:27:28;-1.20;99.90
8715;DHT22;4394;51.208;8.904;2022-12-10T03:30:17;-1.20;99.90
8715;DHT22;4394;51.208;8.904;2022-12-10T03:33:05;-1.20;99.90
8715;DHT22;4394;51.208;8.904;2022-12-10T03:35:53;-1.10;99.90
8715;DHT22;4394;51.208;8.904;2022-12-10T03:38:42;-1.10;99.90
8715;DHT22;4394;51.208;8.904;2022-12-10T03:41:31;-1.10;99.90
8715;DHT22;4394;51.208;8.904;2022-12-10T03:44:26;-1.10;99.90
8715;DHT22;4394;51.208;8.904;2022-12-10T03:47:14;-1.10;99.90
8715;DHT22;4394;51.208;8.904;2022-12-10T03:50:03;-1.00;99.90
8715;DHT22;4394;51.208;8.904;2022-12-10T03:52:51;-1.00;99.90
8715;DHT22;4394;51.208;8.904;2022-12-10T03:55:41;-0.90;99.90
8715;DHT22;4394;51.208;8.904;2022-12-10T03:58:29;-0.90;99.90
8715;DHT22;4394;51.208;8.904;2022-12-10T04:01:17;-0.90;99.90
8715;DHT22;4394;51.208;8.904;2022-12-10T04:04:06;-0.90;99.90
8715;DHT22;4394;51.208;8.904;2022-12-10T04:06:54;-0.90;99.90
8715;DHT22;4394;51.208;8.904;2022-12-10T04:09:42;-0.90;99.90
8715;DHT22;4394;51.208;8.904;2022-12-10T04:12:31;-0.90;99.90
8715;DHT22;4394;51.208;8.904;2022-12-10T04:15:19;-0.90;99.90
8715;DHT22;4394;51.208;8.904;2022-12-10T04:18:25;-0.90;99.90
8715;DHT22;4394;51.208;8.904;2022-12-10T04:21:13;-0.80;99.90
8715;DHT22;4394;51.208;8.904;2022-12-10T04:24:19;-0.80;99.90
8715;DHT22;4394;51.208;8.904;2022-12-10T04:27:25;-0.80;99.90
8715;DHT22;4394;51.208;8.904;2022-12-10T04:30:15;-0.70;99.90
8715;DHT22;4394;51.208;8.904;2022-12-10T04:33:03;-0.70;99.90
8715;DHT22;4394;51.208;8.904;2022-12-10T04:35:51;-0.70;99.90
8715;DHT22;4394;51.208;8.904;2022-12-10T04:38:39;-0.70;99.90
8715;DHT22;4394;51.208;8.904;2022-12-10T04:41:27;-0.80;99.90
8715;DHT22;4394;51.208;8.904;2022-12-10T04:44:15;-0.80;99.90
8715;DHT22;4394;51.208;8.904;2022-12-10T04:47:05;-0.80;99.90
8715;DHT22;4394;51.208;8.904;2022-12-10T04:49:53;-0.80;99.90
8715;DHT22;4394;51.208;8.904;2022-12-10T04:52:41;-0.80;99.90
8715;DHT22;4394;51.208;8.904;2022-12-10T04:55:30;-0.80;99.90
8715;DHT22;4394;51.208;8.904;2022-12-10T04:58:18;-0.90;99.90
8715;DHT22;4394;51.208;8.904;2022-12-10T05:01:06;-0.90;99.90
8715;DHT22;4394;51.208;8.904;2022-12-10T05:03:59;-0.90;99.90
8715;DHT22;4394;51.208;8.904;2022-12-10T05:06:48;-1.00;99.90
8715;DHT22;4394;51.208;8.904;2022-12-10T05:09:37;-1.10;99.90
8715;DHT22;4394;51.208;8.904;2022-12-10T05:12:25;-1.00;99.90
8715;DHT22;4394;51.208;8.904;2022-12-10T05:15:14;-1.10;99.90
8715;DHT22;4394;51.208;8.904;2022-12-10T05:18:02;-1.00;99.90
8715;DHT22;4394;51.208;8.904;2022-12-10T05:20:51;-1.00;99.90
8715;DHT22;4394;51.208;8.904;2022-12-10T05:23:40;-1.00;99.90
8715;DHT22;4394;51.208;8.904;2022-12-10T05:26:28;-1.00;99.90
8715;DHT22;4394;51.208;8.904;2022-12-10T05:29:16;-0.90;99.90
8715;DHT22;4394;51.208;8.904;2022-12-10T05:32:04;-0.90;99.90
8715;DHT22;4394;51.208;8.904;2022-12-10T05:34:52;-0.90;99.90
8715;DHT22;4394;51.208;8.904;2022-12-10T05:37:42;-0.90;99.90
8715;DHT22;4394;51.208;8.904;2022-12-10T05:40:30;-0.80;99.90
8715;DHT22;4394;51.208;8.904;2022-12-10T05:43:18;-0.80;99.90
8715;DHT22;4394;51.208;8.904;2022-12-10T05:46:06;-0.80;99.90
8715;DHT22;4394;51.208;8.904;2022-12-10T05:48:56;-0.70;99.90
8715;DHT22;4394;51.208;8.904;2022-12-10T05:51:44;-0.70;99.90
8715;DHT22;4394;51.208;8.904;2022-12-10T05:54:34;-0.70;99.90
8715;DHT22;4394;51.208;8.904;2022-12-10T05:57:22;-0.70;99.90
8715;DHT22;4394;51.208;8.904;2022-12-10T06:00:10;-0.70;99.90
8715;DHT22;4394;51.208;8.904;2022-12-10T06:02:58;-0.70;99.90
8715;DHT22;4394;51.208;8.904;2022-12-10T06:05:47;-0.70;99.90
8715;DHT22;4394;51.208;8.904;2022-12-10T06:08:35;-0.70;99.90
8715;DHT22;4394;51.208;8.904;2022-12-10T06:11:24;-0.70;99.90
8715;DHT22;4394;51.208;8.904;2022-12-10T06:14:13;-0.80;99.90
8715;DHT22;4394;51.208;8.904;2022-12-10T06:17:01;-0.80;99.90
8715;DHT22;4394;51.208;8.904;2022-12-10T06:19:54;-0.80;99.90
8715;DHT22;4394;51.208;8.904;2022-12-10T06:22:43;-0.70;99.90
8715;DHT22;4394;51.208;8.904;2022-12-10T06:25:44;-0.70;99.90
8715;DHT22;4394;51.208;8.904;2022-12-10T06:28:33;-0.70;99.90
8715;DHT22;4394;51.208;8.904;2022-12-10T06:31:22;-0.70;99.90
8715;DHT22;4394;51.208;8.904;2022-12-10T06:34:10;-0.70;99.90
8715;DHT22;4394;51.208;8.904;2022-12-10T06:36:59;-0.70;99.90
8715;DHT22;4394;51.208;8.904;2022-12-10T06:39:49;-0.70;99.90
8715;DHT22;4394;51.208;8.904;2022-12-10T06:42:37;-0.70;99.90
8715;DHT22;4394;51.208;8.904;2022-12-10T06:45:27;-0.70;99.90
8715;DHT22;4394;51.208;8.904;2022-12-10T06:48:15;-0.70;99.90
8715;DHT22;4394;51.208;8.904;2022-12-10T06:51:04;-0.60;99.90
8715;DHT22;4394;51.208;8.904;2022-12-10T06:53:52;-0.60;99.90
8715;DHT22;4394;51.208;8.904;2022-12-10T06:56:40;-0.50;99.90
8715;DHT22;4394;51.208;8.904;2022-12-10T06:59:29;-0.60;99.90
8715;DHT22;4394;51.208;8.904;2022-12-10T07:02:18;-0.60;99.90
8715;DHT22;4394;51.208;8.904;2022-12-10T07:05:07;-0.60;99.90
8715;DHT22;4394;51.208;8.904;2022-12-10T07:07:56;-0.70;99.90
8715;DHT22;4394;51.208;8.904;2022-12-10T07:10:44;-0.70;99.90
8715;DHT22;4394;51.208;8.904;2022-12-10T07:13:32;-0.60;99.90
8715;DHT22;4394;51.208;8.904;2022-12-10T07:16:21;-0.70;99.90
8715;DHT22;4394;51.208;8.904;2022-12-10T07:19:11;-0.70;99.90
8715;DHT22;4394;51.208;8.904;2022-12-10T07:22:01;-0.70;99.90
8715;DHT22;4394;51.208;8.904;2022-12-10T07:24:49;-0.70;99.90
8715;DHT22;4394;51.208;8.904;2022-12-10T07:27:37;-0.70;99.90
8715;DHT22;4394;51.208;8.904;2022-12-10T07:30:26;-0.70;99.90
8715;DHT22;4394;51.208;8.904;2022-12-10T07:33:14;-0.70;99.90
8715;DHT22;4394;51.208;8.904;2022-12-10T07:36:04;-0.80;99.90
8715;DHT22;4394;51.208;8.904;2022-12-10T07:38:53;-0.70;99.90
8715;DHT22;4394;51.208;8.904;2022-12-10T07:41:41;-0.70;99.90
8715;DHT22;4394;51.208;8.904;2022-12-10T07:44:33;-0.80;99.90
8715;DHT22;4394;51.208;8.904;2022-12-10T07:47:22;-0.90;99.90
8715;DHT22;4394;51.208;8.904;2022-12-10T07:50:10;-0.90;99.90
8715;DHT22;4394;51.208;8.904;2022-12-10T07:53:00;-0.90;99.90
8715;DHT22;4394;51.208;8.904;2022-12-10T07:55:49;-1.00;99.90
8715;DHT22;4394;51.208;8.904;2022-12-10T07:58:40;-1.00;99.90
8715;DHT22;4394;51.208;8.904;2022-12-10T08:01:29;-1.10;99.90
8715;DHT22;4394;51.208;8.904;2022-12-10T08:04:17;-1.10;99.90
8715;DHT22;4394;51.208;8.904;2022-12-10T08:07:05;-1.10;99.90
8715;DHT22;4394;51.208;8.904;2022-12-10T08:09:55;-1.10;99.90
8715;DHT22;4394;51.208;8.904;2022-12-10T08:12:43;-1.00;99.90
8715;DHT22;4394;51.208;8.904;2022-12-10T08:15:31;-1.00;99.90
8715;DHT22;4394;51.208;8.904;2022-12-10T08:18:20;-1.10;99.90
8715;DHT22;4394;51.208;8.904;2022-12-10T08:21:09;-1.10;99.90
8715;DHT22;4394;51.208;8.904;2022-12-10T08:23:58;-1.10;99.90
8715;DHT22;4394;51.208;8.904;2022-12-10T08:26:48;-1.10;99.90
8715;DHT22;4394;51.208;8.904;2022-12-10T08:29:36;-1.10;99.90
8715;DHT22;4394;51.208;8.904;2022-12-10T08:32:24;-1.10;99.90
8715;DHT22;4394;51.208;8.904;2022-12-10T08:35:12;-1.10;99.90
8715;DHT22;4394;51.208;8.904;2022-12-10T08:38:01;-1.00;99.90
8715;DHT22;4394;51.208;8.904;2022-12-10T08:41:04;-0.90;99.90
8715;DHT22;4394;51.208;8.904;2022-12-10T08:44:42;-1.00;99.90
8715;DHT22;4394;51.208;8.904;2022-12-10T08:47:31;-1.00;99.90
8715;DHT22;4394;51.208;8.904;2022-12-10T08:50:19;-0.90;99.90
8715;DHT22;4394;51.208;8.904;2022-12-10T08:53:09;-0.90;99.90
8715;DHT22;4394;51.208;8.904;2022-12-10T08:56:01;-0.80;99.90
8715;DHT22;4394;51.208;8.904;2022-12-10T08:58:52;-0.80;99.90
8715;DHT22;4394;51.208;8.904;2022-12-10T09:01:48;-0.90;99.90
8715;DHT22;4394;51.208;8.904;2022-12-10T09:04:42;-0.90;99.90
8715;DHT22;4394;51.208;8.904;2022-12-10T09:07:32;-0.90;99.90
8715;DHT22;4394;51.208;8.904;2022-12-10T09:10:21;-1.00;99.90
8715;DHT22;4394;51.208;8.904;2022-12-10T09:13:12;-1.00;99.90
8715;DHT22;4394;51.208;8.904;2022-12-10T09:16:03;-1.00;99.90
8715;DHT22;4394;51.208;8.904;2022-12-10T09:18:54;-0.90;99.90
8715;DHT22;4394;51.208;8.904;2022-12-10T09:21:42;-0.90;99.90
8715;DHT22;4394;51.208;8.904;2022-12-10T09:24:36;-0.80;99.90
8715;DHT22;4394;51.208;8.904;2022-12-10T09:27:36;-0.70;99.90
8715;DHT22;4394;51.208;8.904;2022-12-10T09:30:24;-0.70;99.90
8715;DHT22;4394;51.208;8.904;2022-12-10T09:33:12;-0.70;99.90
8715;DHT22;4394;51.208;8.904;2022-12-10T09:36:03;-0.70;99.90
8715;DHT22;4394;51.208;8.904;2022-12-10T09:38:52;-0.70;99.90
8715;DHT22;4394;51.208;8.904;2022-12-10T09:41:50;-0.60;99.90
8715;DHT22;4394;51.208;8.904;2022-12-10T09:44:42;-0.60;99.90
8715;DHT22;4394;51.208;8.904;2022-12-10T09:47:33;-0.60;99.90
8715;DHT22;4394;51.208;8.904;2022-12-10T09:50:23;-0.60;99.90
8715;DHT22;4394;51.208;8.904;2022-12-10T09:53:15;-0.60;99.90
8715;DHT22;4394;51.208;8.904;2022-12-10T09:56:09;-0.50;99.90
8715;DHT22;4394;51.208;8.904;2022-12-10T09:59:03;-0.50;99.90
8715;DHT22;4394;51.208;8.904;2022-12-10T10:01:59;-0.50;99.90
8715;DHT22;4394;51.208;8.904;2022-12-10T10:04:50;-0.40;99.90
8715;DHT22;4394;51.208;8.904;2022-12-10T10:07:41;-0.50;99.90
8715;DHT22;4394;51.208;8.904;2022-12-10T10:10:33;-0.40;99.90
8715;DHT22;4394;51.208;8.904;2022-12-10T10:13:26;-0.40;99.90
8715;DHT22;4394;51.208;8.904;2022-12-10T10:16:19;-0.40;99.90
8715;DHT22;4394;51.208;8.904;2022-12-10T10:19:11;-0.40;99.90
8715;DHT22;4394;51.208;8.904;2022-12-10T10:22:00;-0.20;99.90
8715;DHT22;4394;51.208;8.904;2022-12-10T10:24:51;-0.10;99.90
8715;DHT22;4394;51.208;8.904;2022-12-10T10:27:44;0.00;99.90
8715;DHT22;4394;51.208;8.904;2022-12-10T10:30:32;0.00;99.90
8715;DHT22;4394;51.208;8.904;2022-12-10T10:33:20;0.00;99.90
8715;DHT22;4394;51.208;8.904;2022-12-10T10:36:10;0.10;99.90
8715;DHT22;4394;51.208;8.904;2022-12-10T10:39:06;0.20;99.90
8715;DHT22;4394;51.208;8.904;2022-12-10T10:41:56;0.30;99.90
8715;DHT22;4394;51.208;8.904;2022-12-10T10:44:45;0.30;99.90
8715;DHT22;4394;51.208;8.904;2022-12-10T10:47:34;0.40;99.90
8715;DHT22;4394;51.208;8.904;2022-12-10T10:50:23;0.30;99.90
8715;DHT22;4394;51.208;8.904;2022-12-10T10:53:22;0.40;99.90
8715;DHT22;4394;51.208;8.904;2022-12-10T10:56:11;0.30;99.90
8715;DHT22;4394;51.208;8.904;2022-12-10T10:59:03;0.40;99.90
8715;DHT22;4394;51.208;8.904;2022-12-10T11:01:54;0.40;99.90
8715;DHT22;4394;51.208;8.904;2022-12-10T11:04:48;0.40;99.90
8715;DHT22;4394;51.208;8.904;2022-12-10T11:07:37;0.50;99.90
8715;DHT22;4394;51.208;8.904;2022-12-10T11:10:26;0.50;99.90
8715;DHT22;4394;51.208;8.904;2022-12-10T11:13:19;0.50;99.90
8715;DHT22;4394;51.208;8.904;2022-12-10T11:16:10;0.40;99.90
8715;DHT22;4394;51.208;8.904;2022-12-10T11:19:01;0.50;99.90
8715;DHT22;4394;51.208;8.904;2022-12-10T11:21:51;0.50;99.90
8715;DHT22;4394;51.208;8.904;2022-12-10T11:24:39;0.50;99.90
8715;DHT22;4394;51.208;8.904;2022-12-10T11:27:41;0.50;99.90
8715;DHT22;4394;51.208;8.904;2022-12-10T11:30:34;0.50;99.90
8715;DHT22;4394;51.208;8.904;2022-12-10T11:33:31;0.60;99.90
8715;DHT22;4394;51.208;8.904;2022-12-10T11:36:25;0.70;99.90
8715;DHT22;4394;51.208;8.904;2022-12-10T11:39:25;0.60;99.90
8715;DHT22;4394;51.208;8.904;2022-12-10T11:42:20;0.70;99.90
8715;DHT22;4394;51.208;8.904;2022-12-10T11:45:15;0.70;99.90
8715;DHT22;4394;51.208;8.904;2022-12-10T11:48:10;0.70;99.90
8715;DHT22;4394;51.208;8.904;2022-12-10T11:51:04;0.60;99.90
8715;DHT22;4394;51.208;8.904;2022-12-10T11:57:02;0.60;99.90
8715;DHT22;4394;51.208;8.904;2022-12-10T12:00:17;0.60;99.90
8715;DHT22;4394;51.208;8.904;2022-12-10T12:03:27;0.60;99.90
8715;DHT22;4394;51.208;8.904;2022-12-10T12:06:30;0.60;99.90
8715;DHT22;4394;51.208;8.904;2022-12-10T12:09:25;0.60;99.90
8715;DHT22;4394;51.208;8.904;2022-12-10T12:12:23;0.60;99.90
8715;DHT22;4394;51.208;8.904;2022-12-10T12:15:16;0.60;99.90
8715;DHT22;4394;51.208;8.904;2022-12-10T12:18:11;0.70;99.90
8715;DHT22;4394;51.208;8.904;2022-12-10T12:21:10;0.70;99.90
8715;DHT22;4394;51.208;8.904;2022-12-10T12:24:00;0.70;99.90
8715;DHT22;4394;51.208;8.904;2022-12-10T12:26:52;0.70;99.90
8715;DHT22;4394;51.208;8.904;2022-12-10T12:29:45;0.60;99.90
8715;DHT22;4394;51.208;8.904;2022-12-10T12:32:40;0.60;99.90
8715;DHT22;4394;51.208;8.904;2022-12-10T12:35:36;0.60;99.90
8715;DHT22;4394;51.208;8.904;2022-12-10T12:38:30;0.70;99.90
8715;DHT22;4394;51.208;8.904;2022-12-10T12:41:26;0.70;99.90
8715;DHT22;4394;51.208;8.904;2022-12-10T12:44:24;0.80;99.90
8715;DHT22;4394;51.208;8.904;2022-12-10T12:47:21;0.80;99.90
8715;DHT22;4394;51.208;8.904;2022-12-10T12:50:17;0.90;99.90
8715;DHT22;4394;51.208;8.904;2022-12-10T12:53:11;1.00;99.90
8715;DHT22;4394;51.208;8.904;2022-12-10T12:56:02;1.00;99.90
8715;DHT22;4394;51.208;8.904;2022-12-10T12:58:56;1.00;99.90
8715;DHT22;4394;51.208;8.904;2022-12-10T13:01:49;0.90;99.90
8715;DHT22;4394;51.208;8.904;2022-12-10T13:04:45;0.90;99.90
8715;DHT22;4394;51.208;8.904;2022-12-10T13:07:37;0.90;99.90
8715;DHT22;4394;51.208;8.904;2022-12-10T13:10:29;0.90;99.90
8715;DHT22;4394;51.208;8.904;2022-12-10T13:13:23;0.90;99.90
8715;DHT22;4394;51.208;8.904;2022-12-10T13:19:25;0.80;99.90
8715;DHT22;4394;51.208;8.904;2022-12-10T13:25:24;0.90;99.90
8715;DHT22;4394;51.208;8.904;2022-12-10T13:28:28;0.90;99.90
8715;DHT22;4394;51.208;8.904;2022-12-10T13:31:20;0.90;99.90
8715;DHT22;4394;51.208;8.904;2022-12-10T13:34:20;0.90;99.90
8715;DHT22;4394;51.208;8.904;2022-12-10T13:37:18;1.00;99.90
8715;DHT22;4394;51.208;8.904;2022-12-10T13:40:15;1.00;99.90
8715;DHT22;4394;51.208;8.904;2022-12-10T13:43:23;1.00;99.90
8715;DHT22;4394;51.208;8.904;2022-12-10T13:46:32;0.90;99.90
8715;DHT22;4394;51.208;8.904;2022-12-10T13:49:26;0.90;99.90
8715;DHT22;4394;51.208;8.904;2022-12-10T13:52:18;0.90;99.90
8715;DHT22;4394;51.208;8.904;2022-12-10T13:55:21;0.90;99.90
8715;DHT22;4394;51.208;8.904;2022-12-10T13:58:18;0.90;99.90
8715;DHT22;4394;51.208;8.904;2022-12-10T14:01:13;0.90;99.90
8715;DHT22;4394;51.208;8.904;2022-12-10T14:04:13;0.90;99.90
8715;DHT22;4394;51.208;8.904;2022-12-10T14:07:06;0.80;99.90
8715;DHT22;4394;51.208;8.904;2022-12-10T14:09:55;0.80;99.90
8715;DHT22;4394;51.208;8.904;2022-12-10T14:12:44;0.80;99.90
8715;DHT22;4394;51.208;8.904;2022-12-10T14:15:34;0.80;99.90
8715;DHT22;4394;51.208;8.904;2022-12-10T14:18:24;0.80;99.90
8715;DHT22;4394;51.208;8.904;2022-12-10T14:21:18;0.70;99.90
8715;DHT22;4394;51.208;8.904;2022-12-10T14:24:11;0.80;99.90
8715;DHT22;4394;51.208;8.904;2022-12-10T14:27:14;0.70;99.90
8715;DHT22;4394;51.208;8.904;2022-12-10T14:30:03;0.70;99.90
8715;DHT22;4394;51.208;8.904;2022-12-10T14:32:53;0.70;99.90
8715;DHT22;4394;51.208;8.904;2022-12-10T14:35:47;0.70;99.90
8715;DHT22;4394;51.208;8.904;2022-12-10T14:38:36;0.60;99.90
8715;DHT22;4394;51.208;8.904;2022-12-10T14:41:25;0.60;99.90
8715;DHT22;4394;51.208;8.904;2022-12-10T14:44:14;0.50;99.90
8715;DHT22;4394;51.208;8.904;2022-12-10T14:47:05;0.50;99.90
8715;DHT22;4394;51.208;8.904;2022-12-10T14:49:53;0.50;99.90
8715;DHT22;4394;51.208;8.904;2022-12-10T14:52:44;0.50;99.90
8715;DHT22;4394;51.208;8.904;2022-12-10T14:55:33;0.50;99.90
8715;DHT22;4394;51.208;8.904;2022-12-10T14:58:24;0.50;99.90
8715;DHT22;4394;51.208;8.904;2022-12-10T15:01:16;0.50;99.90
8715;DHT22;4394;51.208;8.904;2022-12-10T15:04:12;0.50;99.90
8715;DHT22;4394;51.208;8.904;2022-12-10T15:07:11;0.50;99.90
8715;DHT22;4394;51.208;8.904;2022-12-10T15:10:04;0.50;99.90
8715;DHT22;4394;51.208;8.904;2022-12-10T15:13:01;0.50;99.90
8715;DHT22;4394;51.208;8.904;2022-12-10T15:15:50;0.50;99.90
8715;DHT22;4394;51.208;8.904;2022-12-10T15:18:39;0.50;99.90
8715;DHT22;4394;51.208;8.904;2022-12-10T15:21:31;0.50;99.90
8715;DHT22;4394;51.208;8.904;2022-12-10T15:24:27;0.50;99.90
8715;DHT22;4394;51.208;8.904;2022-12-10T15:27:18;0.40;99.90
8715;DHT22;4394;51.208;8.904;2022-12-10T15:30:21;0.40;99.90
8715;DHT22;4394;51.208;8.904;2022-12-10T15:33:25;0.40;99.90
8715;DHT22;4394;51.208;8.904;2022-12-10T15:36:18;0.40;99.90
8715;DHT22;4394;51.208;8.904;2022-12-10T15:39:12;0.40;99.90
8715;DHT22;4394;51.208;8.904;2022-12-10T15:42:05;0.30;99.90
8715;DHT22;4394;51.208;8.904;2022-12-10T15:44:56;0.30;99.90
8715;DHT22;4394;51.208;8.904;2022-12-10T15:47:47;0.30;99.90
8715;DHT22;4394;51.208;8.904;2022-12-10T15:50:37;0.30;99.90
8715;DHT22;4394;51.208;8.904;2022-12-10T15:53:27;0.40;99.90
8715;DHT22;4394;51.208;8.904;2022-12-10T15:56:21;0.40;99.90
8715;DHT22;4394;51.208;8.904;2022-12-10T15:59:11;0.40;99.90
8715;DHT22;4394;51.208;8.904;2022-12-10T16:02:06;0.30;99.90
8715;DHT22;4394;51.208;8.904;2022-12-10T16:05:10;0.30;99.90
8715;DHT22;4394;51.208;8.904;2022-12-10T16:08:01;0.20;99.90
8715;DHT22;4394;51.208;8.904;2022-12-10T16:10:51;0.20;99.90
8715;DHT22;4394;51.208;8.904;2022-12-10T16:13:40;0.10;99.90
8715;DHT22;4394;51.208;8.904;2022-12-10T16:16:30;0.10;99.90
8715;DHT22;4394;51.208;8.904;2022-12-10T16:19:20;0.10;99.90
8715;DHT22;4394;51.208;8.904;2022-12-10T16:22:08;0.10;99.90
8715;DHT22;4394;51.208;8.904;2022-12-10T16:24:56;0.10;99.90
8715;DHT22;4394;51.208;8.904;2022-12-10T16:27:44;0.10;99.90
8715;DHT22;4394;51.208;8.904;2022-12-10T16:30:33;0.20;99.90
8715;DHT22;4394;51.208;8.904;2022-12-10T16:33:31;0.20;99.90
8715;DHT22;4394;51.208;8.904;2022-12-10T16:36:21;0.10;99.90
8715;DHT22;4394;51.208;8.904;2022-12-10T16:39:09;0.10;99.90
8715;DHT22;4394;51.208;8.904;2022-12-10T16:41:58;0.00;99.90
8715;DHT22;4394;51.208;8.904;2022-12-10T16:44:46;-0.10;99.90
8715;DHT22;4394;51.208;8.904;2022-12-10T16:47:34;-0.10;99.90
8715;DHT22;4394;51.208;8.904;2022-12-10T16:50:22;-0.10;99.90
8715;DHT22;4394;51.208;8.904;2022-12-10T16:53:14;-0.10;99.90
8715;DHT22;4394;51.208;8.904;2022-12-10T16:56:03;-0.10;99.90
8715;DHT22;4394;51.208;8.904;2022-12-10T16:58:51;-0.10;99.90
8715;DHT22;4394;51.208;8.904;2022-12-10T17:01:40;-0.20;99.90
8715;DHT22;4394;51.208;8.904;2022-12-10T17:04:28;-0.20;99.90
8715;DHT22;4394;51.208;8.904;2022-12-10T17:07:16;-0.20;99.90
8715;DHT22;4394;51.208;8.904;2022-12-10T17:10:06;-0.20;99.90
8715;DHT22;4394;51.208;8.904;2022-12-10T17:12:54;-0.20;99.90
8715;DHT22;4394;51.208;8.904;2022-12-10T17:15:42;-0.20;99.90
8715;DHT22;4394;51.208;8.904;2022-12-10T17:18:31;-0.20;99.90
8715;DHT22;4394;51.208;8.904;2022-12-10T17:21:19;-0.10;99.90
8715;DHT22;4394;51.208;8.904;2022-12-10T17:24:08;-0.20;99.90
8715;DHT22;4394;51.208;8.904;2022-12-10T17:26:58;-0.10;99.90
8715;DHT22;4394;51.208;8.904;2022-12-10T17:29:48;-0.10;99.90
8715;DHT22;4394;51.208;8.904;2022-12-10T17:32:40;-0.10;99.90
8715;DHT22;4394;51.208;8.904;2022-12-10T17:35:28;-0.10;99.90
8715;DHT22;4394;51.208;8.904;2022-12-10T17:38:17;-0.10;99.90
8715;DHT22;4394;51.208;8.904;2022-12-10T17:41:06;-0.20;99.90
8715;DHT22;4394;51.208;8.904;2022-12-10T17:43:57;-0.10;99.90
8715;DHT22;4394;51.208;8.904;2022-12-10T17:46:45;-0.10;99.90
8715;DHT22;4394;51.208;8.904;2022-12-10T17:49:34;-0.20;99.90
8715;DHT22;4394;51.208;8.904;2022-12-10T17:52:22;-0.20;99.90
8715;DHT22;4394;51.208;8.904;2022-12-10T17:55:12;-0.20;99.90
8715;DHT22;4394;51.208;8.904;2022-12-10T17:58:02;-0.20;99.90
8715;DHT22;4394;51.208;8.904;2022-12-10T18:00:53;-0.20;99.90
8715;DHT22;4394;51.208;8.904;2022-12-10T18:03:43;-0.20;99.90
8715;DHT22;4394;51.208;8.904;2022-12-10T18:06:33;-0.20;99.90
8715;DHT22;4394;51.208;8.904;2022-12-10T18:09:22;-0.20;99.90
8715;DHT22;4394;51.208;8.904;2022-12-10T18:12:13;-0.20;99.90
8715;DHT22;4394;51.208;8.904;2022-12-10T18:15:03;-0.20;99.90
8715;DHT22;4394;51.208;8.904;2022-12-10T18:17:53;-0.30;99.90
8715;DHT22;4394;51.208;8.904;2022-12-10T18:20:42;-0.20;99.90
8715;DHT22;4394;51.208;8.904;2022-12-10T18:23:31;-0.20;99.90
8715;DHT22;4394;51.208;8.904;2022-12-10T18:26:20;-0.20;99.90
8715;DHT22;4394;51.208;8.904;2022-12-10T18:29:10;-0.30;99.90
8715;DHT22;4394;51.208;8.904;2022-12-10T18:32:00;-0.20;99.90
8715;DHT22;4394;51.208;8.904;2022-12-10T18:34:50;-0.20;99.90
8715;DHT22;4394;51.208;8.904;2022-12-10T18:37:39;-0.20;99.90
8715;DHT22;4394;51.208;8.904;2022-12-10T18:40:27;-0.20;99.90
8715;DHT22;4394;51.208;8.904;2022-12-10T18:43:15;-0.20;99.90
8715;DHT22;4394;51.208;8.904;2022-12-10T18:46:03;-0.20;99.90
8715;DHT22;4394;51.208;8.904;2022-12-10T18:48:53;-0.20;99.90
8715;DHT22;4394;51.208;8.904;2022-12-10T18:51:44;-0.10;99.90